createdAt,value
2023-04-25T00:01:23.821Z,13.71
2023-04-25T00:03:51.992Z,13.64
2023-04-25T00:06:19.647Z,13.72
2023-04-25T00:08:47.108Z,13.83
2023-04-25T00:11:14.449Z,13.70
2023-04-25T00:13:42.879Z,13.86
2023-04-25T00:16:10.330Z,13.64
2023-04-25T00:18:38.618Z,13.70
2023-04-25T00:21:07.366Z,13.66
2023-04-25T00:23:36.808Z,13.77
2023-04-25T00:26:04.413Z,13.69
2023-04-25T00:28:31.641Z,13.66
2023-04-25T00:30:59.384Z,13.60
2023-04-25T00:33:26.673Z,13.72
2023-04-25T00:35:54.198Z,13.68
2023-04-25T00:38:21.436Z,13.79
2023-04-25T00:40:49.038Z,13.74
2023-04-25T00:43:16.265Z,13.80
2023-04-25T00:45:44.689Z,13.84
2023-04-25T00:48:12.659Z,13.83
2023-04-25T00:50:40.070Z,13.86
2023-04-25T00:53:07.884Z,13.96
2023-04-25T00:55:37.251Z,13.95
2023-04-25T00:58:04.769Z,13.98
2023-04-25T01:00:31.922Z,13.96
2023-04-25T01:03:00.031Z,13.98
2023-04-25T01:05:27.380Z,13.90
2023-04-25T01:07:54.798Z,13.84
2023-04-25T01:10:22.041Z,13.82
2023-04-25T01:12:49.328Z,13.72
2023-04-25T01:15:16.526Z,13.77
2023-04-25T01:17:45.465Z,13.62
2023-04-25T01:20:13.251Z,13.72
2023-04-25T01:22:40.853Z,13.66
2023-04-25T01:25:09.369Z,13.67
2023-04-25T01:27:38.231Z,13.62
2023-04-25T01:30:07.035Z,13.76
2023-04-25T01:32:40.808Z,13.76
2023-04-25T01:35:11.436Z,13.64
2023-04-25T01:37:40.486Z,13.65
2023-04-25T01:40:13.772Z,13.73
2023-04-25T01:42:43.600Z,13.63
2023-04-25T01:45:11.939Z,13.68
2023-04-25T01:47:41.071Z,13.61
2023-04-25T01:50:09.387Z,13.43
2023-04-25T01:52:37.782Z,13.40
2023-04-25T01:55:05.442Z,13.52
2023-04-25T01:57:34.430Z,13.50
2023-04-25T02:00:05.328Z,13.54
2023-04-25T02:02:42.148Z,13.55
2023-04-25T02:05:22.077Z,13.46
2023-04-25T02:07:49.737Z,13.51
2023-04-25T02:10:16.857Z,13.44
2023-04-25T02:12:55.568Z,13.45
2023-04-25T02:15:34.752Z,13.60
2023-04-25T02:18:34.478Z,13.89
2023-04-25T02:21:02.337Z,14.08
2023-04-25T02:23:30.032Z,14.10
2023-04-25T02:25:58.418Z,14.28
2023-04-25T02:28:27.192Z,14.40
2023-04-25T02:30:54.518Z,14.43
2023-04-25T02:33:22.252Z,14.36
2023-04-25T02:35:49.409Z,14.36
2023-04-25T02:38:16.596Z,14.44
2023-04-25T02:40:43.934Z,14.52
2023-04-25T02:43:11.110Z,14.60
2023-04-25T02:45:38.858Z,14.55
2023-04-25T02:48:06.412Z,14.86
2023-04-25T02:50:33.622Z,14.84
2023-04-25T02:53:01.298Z,14.93
2023-04-25T02:55:35.357Z,14.94
2023-04-25T02:58:04.217Z,14.99
2023-04-25T03:00:44.786Z,14.96
2023-04-25T03:03:12.111Z,15.17
2023-04-25T03:05:41.075Z,15.19
2023-04-25T03:08:08.654Z,15.15
2023-04-25T03:10:38.219Z,15.03
2023-04-25T03:13:08.137Z,15.18
2023-04-25T03:15:37.449Z,15.16
2023-04-25T03:18:05.380Z,15.21
2023-04-25T03:20:32.830Z,15.31
2023-04-25T03:23:00.054Z,15.40
2023-04-25T03:25:28.896Z,15.36
2023-04-25T03:27:56.577Z,15.38
2023-04-25T03:30:24.348Z,15.29
2023-04-25T03:32:51.633Z,15.31
2023-04-25T03:35:18.816Z,15.21
2023-04-25T03:37:47.277Z,15.19
2023-04-25T03:40:21.081Z,15.49
2023-04-25T03:43:11.118Z,15.33
2023-04-25T03:45:40.604Z,15.30
2023-04-25T03:48:08.136Z,15.34
2023-04-25T03:50:36.056Z,15.43
2023-04-25T03:53:23.253Z,15.43
2023-04-25T03:56:09.096Z,15.41
2023-04-25T03:58:38.555Z,15.42
2023-04-25T04:01:08.987Z,15.65
2023-04-25T04:03:39.321Z,15.71
2023-04-25T04:06:08.369Z,15.75
2023-04-25T04:08:44.202Z,15.62
2023-04-25T04:11:12.295Z,15.67
2023-04-25T04:13:39.548Z,15.70
2023-04-25T04:16:07.715Z,15.82
2023-04-25T04:18:35.627Z,15.78
2023-04-25T04:21:03.024Z,15.90
2023-04-25T04:23:33.196Z,15.89
2023-04-25T04:26:01.967Z,15.91
2023-04-25T04:29:04.878Z,15.99
2023-04-25T04:31:50.851Z,15.99
2023-04-25T04:34:19.616Z,15.96
2023-04-25T04:36:47.360Z,16.05
2023-04-25T04:39:15.014Z,16.06
2023-04-25T04:41:59.390Z,16.07
2023-04-25T04:44:35.477Z,16.09
2023-04-25T04:47:21.571Z,16.04
2023-04-25T04:50:12.323Z,16.00
2023-04-25T04:52:56.261Z,16.06
2023-04-25T04:55:44.084Z,16.11
2023-04-25T04:58:37.738Z,16.06
2023-04-25T05:01:37.429Z,16.12
2023-04-25T05:04:24.923Z,16.14
2023-04-25T05:07:31.797Z,16.01
2023-04-25T05:10:09.117Z,15.99
2023-04-25T05:12:54.810Z,16.02
2023-04-25T05:15:42.285Z,15.99
2023-04-25T05:18:25.964Z,16.00
2023-04-25T05:21:05.439Z,16.08
2023-04-25T05:23:42.424Z,16.19
2023-04-25T05:26:25.336Z,16.14
2023-04-25T05:29:11.218Z,16.18
2023-04-25T05:31:56.909Z,16.11
2023-04-25T05:34:24.988Z,16.25
2023-04-25T05:36:56.707Z,16.20
2023-04-25T05:39:24.795Z,16.22
2023-04-25T05:42:10.311Z,16.39
2023-04-25T05:44:56.263Z,16.40
2023-04-25T05:47:42.418Z,16.37
2023-04-25T05:50:15.610Z,16.40
2023-04-25T05:53:14.467Z,16.37
2023-04-25T05:55:44.549Z,16.35
2023-04-25T05:58:23.188Z,16.39
2023-04-25T06:00:50.907Z,16.43
2023-04-25T06:03:20.764Z,16.40
2023-04-25T06:05:49.455Z,16.54
2023-04-25T06:08:17.336Z,16.57
2023-04-25T06:10:44.598Z,16.55
2023-04-25T06:13:12.083Z,16.55
2023-04-25T06:15:39.352Z,16.46
2023-04-25T06:18:06.636Z,16.48
2023-04-25T06:20:35.051Z,16.48
2023-04-25T06:23:02.248Z,16.51
2023-04-25T06:25:39.665Z,16.45
2023-04-25T06:28:07.001Z,16.40
2023-04-25T06:30:34.882Z,16.45
2023-04-25T06:33:07.795Z,16.53
2023-04-25T06:35:36.025Z,16.42
2023-04-25T06:38:03.444Z,16.43
2023-04-25T06:40:31.864Z,16.51
2023-04-25T06:42:59.618Z,16.53
2023-04-25T06:45:48.305Z,16.59
2023-04-25T06:48:16.713Z,16.62
2023-04-25T06:50:44.384Z,16.64
2023-04-25T06:53:19.984Z,16.68
2023-04-25T06:55:51.912Z,16.64
2023-04-25T06:58:21.817Z,16.64
2023-04-25T07:00:52.012Z,16.76
2023-04-25T07:03:22.648Z,16.69
2023-04-25T07:05:51.838Z,16.63
2023-04-25T07:08:19.656Z,16.55
2023-04-25T07:10:49.805Z,16.46
2023-04-25T07:13:17.465Z,16.51
2023-04-25T07:15:45.321Z,16.55
2023-04-25T07:18:13.207Z,16.46
2023-04-25T07:20:40.665Z,16.66
2023-04-25T07:23:08.121Z,16.67
2023-04-25T07:25:36.355Z,16.62
2023-04-25T07:28:03.791Z,16.62
2023-04-25T07:30:31.040Z,16.51
2023-04-25T07:32:58.166Z,16.67
2023-04-25T07:35:26.384Z,16.73
2023-04-25T07:37:53.666Z,16.75
2023-04-25T07:40:21.062Z,16.75
2023-04-25T07:42:52.528Z,16.82
2023-04-25T07:45:43.678Z,16.76
2023-04-25T07:48:11.224Z,16.68
2023-04-25T07:50:40.168Z,16.71
2023-04-25T07:53:07.726Z,16.73
2023-04-25T07:55:43.480Z,16.71
2023-04-25T07:58:16.437Z,16.68
2023-04-25T08:00:46.179Z,16.59
2023-04-25T08:03:40.168Z,16.62
2023-04-25T08:06:14.841Z,16.71
2023-04-25T08:08:50.889Z,16.80
2023-04-25T08:11:21.504Z,16.90
2023-04-25T08:13:48.897Z,17.01
2023-04-25T08:16:17.147Z,17.13
2023-04-25T08:18:44.722Z,17.13
2023-04-25T08:21:12.828Z,17.05
2023-04-25T08:23:40.665Z,17.09
2023-04-25T08:26:14.478Z,17.11
2023-04-25T08:28:43.494Z,17.14
2023-04-25T08:31:11.577Z,17.07
2023-04-25T08:33:50.690Z,17.17
2023-04-25T08:36:39.121Z,17.09
2023-04-25T08:39:17.755Z,17.20
2023-04-25T08:41:59.736Z,17.25
2023-04-25T08:44:28.110Z,17.34
2023-04-25T08:46:56.712Z,17.27
2023-04-25T08:49:30.669Z,17.55
2023-04-25T08:52:01.563Z,17.46
2023-04-25T08:54:35.581Z,17.48
2023-04-25T08:57:06.927Z,17.54
2023-04-25T08:59:34.320Z,17.53
2023-04-25T09:02:02.433Z,17.43
2023-04-25T09:04:34.738Z,17.60
2023-04-25T09:07:02.006Z,17.59
2023-04-25T09:09:30.605Z,17.45
2023-04-25T09:11:59.432Z,17.43
2023-04-25T09:14:29.058Z,17.35
2023-04-25T09:17:08.978Z,17.39
2023-04-25T09:19:48.963Z,17.46
2023-04-25T09:22:23.883Z,17.52
2023-04-25T09:24:52.490Z,17.51
2023-04-25T09:27:28.089Z,17.50
2023-04-25T09:30:37.358Z,17.50
2023-04-25T09:33:12.768Z,17.55
2023-04-25T09:35:46.513Z,17.60
2023-04-25T09:38:24.883Z,17.43
2023-04-25T09:41:10.539Z,17.35
2023-04-25T09:43:48.935Z,17.23
2023-04-25T09:46:17.094Z,17.26
2023-04-25T09:48:52.270Z,17.06
2023-04-25T09:51:28.934Z,17.06
2023-04-25T09:53:58.718Z,16.71
2023-04-25T09:56:55.561Z,16.64
2023-04-25T09:59:26.409Z,16.59
2023-04-25T10:01:56.031Z,16.55
2023-04-25T10:04:36.056Z,16.61
2023-04-25T10:07:13.350Z,16.72
2023-04-25T10:09:48.930Z,16.65
2023-04-25T10:12:17.464Z,16.77
2023-04-25T10:14:45.379Z,16.74
2023-04-25T10:17:15.217Z,16.85
2023-04-25T10:19:43.360Z,16.96
2023-04-25T10:22:19.932Z,17.16
2023-04-25T10:24:48.432Z,17.15
2023-04-25T10:27:15.827Z,17.17
2023-04-25T10:29:46.565Z,17.31
2023-04-25T10:32:13.943Z,17.32
2023-04-25T10:34:48.288Z,17.34
2023-04-25T10:37:15.678Z,17.43
2023-04-25T10:39:43.317Z,17.27
2023-04-25T10:42:10.531Z,17.40
2023-04-25T10:44:41.127Z,17.31
2023-04-25T10:47:10.760Z,17.36
2023-04-25T10:49:42.450Z,17.44
2023-04-25T10:52:13.485Z,17.58
2023-04-25T10:54:48.425Z,17.63
2023-04-25T10:57:34.578Z,17.79
2023-04-25T11:00:07.561Z,17.82
2023-04-25T11:02:39.252Z,17.87
2023-04-25T11:05:07.752Z,17.90
2023-04-25T11:08:03.983Z,17.85
2023-04-25T11:10:37.666Z,18.06
2023-04-25T11:13:05.813Z,17.98
2023-04-25T11:15:33.087Z,17.97
2023-04-25T11:18:00.873Z,17.99
2023-04-25T11:20:30.046Z,17.97
2023-04-25T11:25:30.777Z,17.79
2023-04-25T11:28:00.018Z,17.95
2023-04-25T11:30:28.344Z,17.90
2023-04-25T11:32:55.970Z,18.07
2023-04-25T11:35:26.884Z,18.09
2023-04-25T11:37:54.370Z,18.04
2023-04-25T11:40:21.925Z,18.05
2023-04-25T11:42:49.190Z,17.92
2023-04-25T11:45:17.134Z,18.06
2023-04-25T11:47:44.474Z,17.91
2023-04-25T11:50:12.217Z,17.95
2023-04-25T11:52:45.076Z,18.10
2023-04-25T11:55:16.533Z,18.12
2023-04-25T11:57:45.641Z,18.17
2023-04-25T12:00:21.507Z,18.15
2023-04-25T12:02:53.275Z,18.19
2023-04-25T12:05:32.197Z,18.01
2023-04-25T12:08:19.142Z,18.18
2023-04-25T12:10:47.843Z,18.12
2023-04-25T12:13:26.141Z,18.23
2023-04-25T12:15:55.847Z,18.21
2023-04-25T12:18:26.640Z,18.23
2023-04-25T12:20:54.334Z,18.26
2023-04-25T12:23:32.024Z,18.17
2023-04-25T12:25:59.259Z,17.81
2023-04-25T12:28:28.742Z,17.90
2023-04-25T12:31:07.389Z,17.91
2023-04-25T12:33:36.533Z,17.92
2023-04-25T12:36:12.200Z,17.97
2023-04-25T12:38:41.302Z,17.89
2023-04-25T12:41:08.952Z,17.95
2023-04-25T12:43:36.789Z,17.78
2023-04-25T12:46:04.334Z,17.70
2023-04-25T12:48:31.722Z,17.69
2023-04-25T12:50:59.327Z,17.66
2023-04-25T12:53:26.565Z,17.44
2023-04-25T12:58:26.954Z,17.17
2023-04-25T13:00:54.287Z,17.14
2023-04-25T13:03:21.584Z,17.10
2023-04-25T13:05:48.904Z,16.95
2023-04-25T13:08:16.465Z,16.98
2023-04-25T13:10:43.668Z,16.86
2023-04-25T13:13:10.945Z,16.82
2023-04-25T13:15:38.688Z,16.89
2023-04-25T13:18:06.786Z,16.95
2023-04-25T13:20:34.632Z,16.83
2023-04-25T13:23:02.949Z,16.84
2023-04-25T13:25:30.458Z,16.77
2023-04-25T13:27:57.874Z,16.64
2023-04-25T13:30:25.178Z,16.73
2023-04-25T13:32:52.872Z,16.78
2023-04-25T13:35:20.124Z,16.67
2023-04-25T13:37:47.559Z,16.55
2023-04-25T13:40:14.738Z,16.59
2023-04-25T13:42:45.751Z,16.60
2023-04-25T13:45:12.975Z,16.59
2023-04-25T13:47:40.441Z,16.47
2023-04-25T13:50:09.198Z,16.58
2023-04-25T13:52:36.583Z,16.58
2023-04-25T13:55:04.958Z,16.61
2023-04-25T13:57:32.853Z,16.60
2023-04-25T14:00:00.612Z,16.45
2023-04-25T14:02:28.832Z,16.50
2023-04-25T14:04:56.251Z,16.39
2023-04-25T14:07:23.711Z,16.34
2023-04-25T14:09:51.008Z,16.30
2023-04-25T14:12:19.012Z,16.20
2023-04-25T14:14:49.978Z,16.29
2023-04-25T14:17:19.956Z,16.31
2023-04-25T14:19:49.146Z,16.07
2023-04-25T14:22:16.793Z,16.13
2023-04-25T14:24:43.909Z,16.04
2023-04-25T14:27:11.553Z,16.17
2023-04-25T14:29:38.718Z,16.12
2023-04-25T14:32:06.611Z,16.05
2023-04-25T14:34:33.695Z,15.93
2023-04-25T14:37:01.432Z,16.04
2023-04-25T14:39:28.601Z,15.91
2023-04-25T14:41:57.440Z,16.00
2023-04-25T14:44:24.641Z,16.09
2023-04-25T14:46:52.930Z,16.11
2023-04-25T14:49:20.565Z,16.08
2023-04-25T14:51:48.822Z,16.06
2023-04-25T14:54:18.038Z,16.17
2023-04-25T14:56:45.307Z,16.18
2023-04-25T14:59:15.678Z,16.23
2023-04-25T15:01:43.024Z,16.17
2023-04-25T15:04:10.451Z,16.18
2023-04-25T15:06:37.761Z,16.10
2023-04-25T15:09:04.972Z,16.01
2023-04-25T15:11:32.512Z,15.93
2023-04-25T15:14:00.811Z,15.90
2023-04-25T15:16:28.038Z,16.07
2023-04-25T15:18:55.342Z,16.04
2023-04-25T15:21:23.114Z,16.17
2023-04-25T15:23:50.846Z,16.13
2023-04-25T15:26:18.131Z,16.13
2023-04-25T15:28:45.455Z,16.20
2023-04-25T15:31:12.722Z,16.16
2023-04-25T15:33:39.891Z,16.17
2023-04-25T15:36:07.384Z,16.15
2023-04-25T15:38:34.646Z,16.07
2023-04-25T15:41:01.901Z,16.08
2023-04-25T15:43:29.835Z,16.08
2023-04-25T15:45:57.472Z,15.98
2023-04-25T15:48:24.671Z,16.07
2023-04-25T15:50:52.164Z,16.06
2023-04-25T15:53:19.429Z,15.97
2023-04-25T15:55:46.706Z,15.98
2023-04-25T15:58:13.854Z,15.89
2023-04-25T16:00:41.431Z,15.98
2023-04-25T16:03:09.552Z,16.01
2023-04-25T16:05:37.585Z,15.98
2023-04-25T16:08:05.529Z,16.00
2023-04-25T16:10:33.402Z,15.96
2023-04-25T16:13:00.502Z,15.92
2023-04-25T16:15:27.731Z,15.96
2023-04-25T16:17:54.979Z,15.98
2023-04-25T16:20:22.539Z,15.96
2023-04-25T16:22:50.025Z,16.00
2023-04-25T16:25:17.612Z,16.09
2023-04-25T16:27:45.214Z,16.09
2023-04-25T16:30:14.210Z,16.00
2023-04-25T16:32:43.969Z,16.08
2023-04-25T16:35:12.892Z,16.03
2023-04-25T16:37:40.104Z,16.06
2023-04-25T16:40:10.625Z,16.02
2023-04-25T16:42:38.156Z,16.09
2023-04-25T16:45:06.003Z,15.96
2023-04-25T16:47:33.747Z,15.94
2023-04-25T16:50:01.760Z,15.88
2023-04-25T16:52:31.782Z,16.01
2023-04-25T16:54:58.929Z,15.92
2023-04-25T16:57:26.132Z,15.91
2023-04-25T16:59:53.288Z,15.91
2023-04-25T17:02:20.600Z,15.89
2023-04-25T17:04:48.933Z,15.99
2023-04-25T17:07:17.340Z,16.01
2023-04-25T17:09:44.700Z,16.02
2023-04-25T17:12:11.840Z,15.96
2023-04-25T17:14:40.094Z,15.86
2023-04-25T17:17:07.406Z,15.72
2023-04-25T17:19:35.549Z,15.85
2023-04-25T17:22:02.672Z,15.82
2023-04-25T17:24:29.834Z,15.91
2023-04-25T17:26:57.382Z,16.00
2023-04-25T17:29:24.499Z,15.99
2023-04-25T17:31:53.080Z,16.04
2023-04-25T17:34:20.981Z,16.11
2023-04-25T17:36:48.553Z,15.97
2023-04-25T17:39:17.739Z,16.09
2023-04-25T17:41:45.413Z,16.06
2023-04-25T17:44:12.811Z,16.03
2023-04-25T17:46:40.088Z,16.11
2023-04-25T17:49:08.517Z,16.07
2023-04-25T17:51:35.601Z,16.15
2023-04-25T17:54:02.721Z,16.09
2023-04-25T17:56:30.751Z,16.10
2023-04-25T17:58:58.207Z,16.08
2023-04-25T18:01:25.999Z,16.02
2023-04-25T18:03:53.389Z,15.86
2023-04-25T18:06:21.024Z,15.74
2023-04-25T18:08:48.923Z,15.82
2023-04-25T18:11:16.456Z,15.76
2023-04-25T18:13:43.788Z,15.81
2023-04-25T18:16:11.816Z,15.82
2023-04-25T18:18:39.080Z,15.91
2023-04-25T18:21:07.973Z,15.89
2023-04-25T18:23:35.605Z,15.89
2023-04-25T18:26:04.432Z,15.90
2023-04-25T18:28:34.521Z,15.89
2023-04-25T18:31:01.927Z,15.85
2023-04-25T18:33:29.019Z,15.89
2023-04-25T18:35:59.776Z,15.93
2023-04-25T18:41:10.564Z,15.91
2023-04-25T18:43:45.088Z,15.89
2023-04-25T18:46:12.639Z,15.95
2023-04-25T18:48:39.908Z,15.98
2023-04-25T18:51:07.447Z,15.99
2023-04-25T18:53:35.068Z,15.92
2023-04-25T18:56:02.405Z,15.89
2023-04-25T18:58:29.580Z,15.88
2023-04-25T19:00:57.046Z,15.87
2023-04-25T19:03:24.499Z,15.90
2023-04-25T19:05:52.565Z,15.87
2023-04-25T19:08:20.443Z,15.80
2023-04-25T19:10:47.745Z,15.88
2023-04-25T19:13:14.836Z,15.87
2023-04-25T19:15:42.519Z,15.81
2023-04-25T19:18:09.774Z,15.68
2023-04-25T19:20:37.551Z,15.74
2023-04-25T19:23:05.459Z,15.82
2023-04-25T19:25:34.553Z,15.72
2023-04-25T19:28:02.052Z,15.75
2023-04-25T19:30:29.898Z,15.63
2023-04-25T19:32:57.515Z,15.66
2023-04-25T19:35:25.150Z,15.63
2023-04-25T19:37:54.673Z,15.61
2023-04-25T19:40:22.845Z,15.54
2023-04-25T19:42:51.006Z,15.64
2023-04-25T19:45:18.425Z,15.51
2023-04-25T19:47:45.785Z,15.49
2023-04-25T19:50:13.191Z,15.42
2023-04-25T19:52:40.779Z,15.32
2023-04-25T19:55:08.629Z,15.29
2023-04-25T19:57:38.043Z,15.31
2023-04-25T20:00:09.096Z,15.47
2023-04-25T20:02:40.963Z,15.66
2023-04-25T20:05:09.342Z,15.48
2023-04-25T20:07:37.024Z,15.30
2023-04-25T20:10:07.114Z,15.26
2023-04-25T20:12:40.611Z,15.15
2023-04-25T20:15:10.083Z,15.17
2023-04-25T20:17:38.968Z,15.09
2023-04-25T20:20:07.122Z,15.25
2023-04-25T20:22:37.116Z,15.16
2023-04-25T20:25:08.990Z,15.24
2023-04-25T20:27:40.893Z,15.26
2023-04-25T20:30:09.824Z,15.17
2023-04-25T20:32:38.078Z,15.23
2023-04-25T20:35:08.722Z,15.46
2023-04-25T20:37:36.454Z,15.47
2023-04-25T20:40:09.687Z,15.52
2023-04-25T20:42:36.876Z,15.52
2023-04-25T20:45:07.935Z,15.61
2023-04-25T20:47:36.196Z,15.54
2023-04-25T20:50:06.766Z,15.39
2023-04-25T20:52:35.466Z,15.47
2023-04-25T20:55:02.592Z,15.49
2023-04-25T20:57:32.632Z,15.49
2023-04-25T20:59:59.811Z,15.41
2023-04-25T21:02:27.514Z,15.44
2023-04-25T21:04:54.838Z,15.29
2023-04-25T21:07:22.336Z,15.34
2023-04-25T21:09:49.524Z,15.40
2023-04-25T21:12:16.693Z,15.32
2023-04-25T21:14:43.976Z,15.09
2023-04-25T21:17:12.122Z,15.26
2023-04-25T21:19:39.179Z,15.14
2023-04-25T21:22:06.308Z,14.96
2023-04-25T21:24:33.544Z,15.14
2023-04-25T21:27:01.268Z,15.08
2023-04-25T21:29:28.420Z,14.96
2023-04-25T21:31:57.118Z,15.06
2023-04-25T21:34:26.568Z,14.87
2023-04-25T21:36:53.872Z,14.87
2023-04-25T21:39:21.013Z,14.87
2023-04-25T21:41:48.549Z,14.73
2023-04-25T21:44:15.902Z,14.43
2023-04-25T21:46:43.751Z,14.37
2023-04-25T21:49:11.588Z,14.40
2023-04-25T21:51:38.799Z,14.42
2023-04-25T21:54:06.973Z,14.31
2023-04-25T21:56:34.391Z,14.45
2023-04-25T21:59:01.709Z,14.40
2023-04-25T22:01:28.995Z,14.39
2023-04-25T22:03:56.379Z,14.44
2023-04-25T22:06:23.909Z,14.39
2023-04-25T22:08:51.239Z,14.29
2023-04-25T22:11:18.689Z,14.26
2023-04-25T22:13:46.883Z,14.03
2023-04-25T22:16:14.024Z,14.10
2023-04-25T22:18:41.116Z,14.16
2023-04-25T22:21:09.065Z,14.18
2023-04-25T22:23:37.739Z,13.89
2023-04-25T22:26:05.409Z,13.87
2023-04-25T22:28:33.329Z,13.67
2023-04-25T22:31:00.746Z,13.85
2023-04-25T22:33:28.133Z,13.65
2023-04-25T22:35:55.591Z,13.55
2023-04-25T22:38:22.752Z,13.50
2023-04-25T22:40:49.958Z,13.51
2023-04-25T22:43:17.398Z,13.58
2023-04-25T22:45:44.552Z,13.57
2023-04-25T22:48:12.456Z,13.43
2023-04-25T22:50:41.079Z,13.49
2023-04-25T22:53:10.334Z,13.45
2023-04-25T22:55:37.539Z,13.28
2023-04-25T22:58:05.273Z,13.38
2023-04-25T23:00:34.510Z,13.28
2023-04-25T23:03:06.058Z,13.33
2023-04-25T23:05:33.714Z,13.28
2023-04-25T23:08:00.848Z,13.44
2023-04-25T23:10:28.656Z,13.46
2023-04-25T23:12:58.220Z,13.33
2023-04-25T23:15:31.167Z,13.31
2023-04-25T23:17:59.074Z,13.38
2023-04-25T23:20:27.090Z,13.11
2023-04-25T23:22:55.225Z,13.17
2023-04-25T23:25:22.477Z,13.21
2023-04-25T23:27:49.931Z,12.90
2023-04-25T23:30:17.335Z,12.73
2023-04-25T23:32:44.959Z,12.54
2023-04-25T23:35:12.321Z,12.46
2023-04-25T23:37:43.032Z,12.24
2023-04-25T23:40:12.285Z,12.19
2023-04-25T23:42:41.383Z,12.27
2023-04-25T23:45:09.690Z,12.06
2023-04-25T23:47:36.836Z,12.05
2023-04-25T23:50:04.645Z,11.86
2023-04-25T23:52:32.654Z,11.77
2023-04-25T23:54:59.984Z,11.71
2023-04-25T23:57:27.162Z,11.58
2023-04-25T23:59:54.383Z,11.57
